• Join FlightAware (Why Join?)
  • Login
  • US Flag 
11:13AM EDT


 

Airport Tracker/Info


-or-


 

Live Flight TrackerFlight Track Log ✈ AMF1026 ✈ 02-May-2013 ✈ KALB - KCVG

Flight Track Log - Related Links

Times and Time Zones

All times are in EDT time to prevent confusion due to time zone crossing. See the AMF1026 flight status page for this flight to view local times or setup timezone preferences in your user account.

Time Position Orientation Groundspeed Altitude Reporting Facility
EDT Latitude Longitude Course Direction KTS MPH feet Rate Location/Type
08:46PM 42.7653 -73.8061 336° Northwest 159 183 800  Level Boston Center
08:47PM 42.8192 -73.8383 336° Northwest 213 245 2,400 1,500 Climbing Boston Center
08:48PM 42.8142 -73.8978 263° West 203 234 3,800 1,440 Climbing Boston Center
08:49PM 42.7964 -73.9764 253° West 216 249 5,100 1,260 Climbing Boston Center
08:50PM 42.7767 -74.0581 252° West 251 289 6,400 1,260 Climbing Boston Center
08:51PM 42.7567 -74.1367 251° West 233 268 7,700 1,260 Climbing Boston Center
08:52PM 42.7492 -74.2128 262° West 233 268 9,000 1,080 Climbing Boston Center
08:53PM 42.7372 -74.3058 260° West 233 268 9,900 480 Climbing Boston Center
08:54PM 42.7006 -74.3811 236° Southwest 249 287 10,000 480 Climbing Boston Center
08:55PM 42.6636 -74.4786 243° Southwest 265 305 10,900 840 Climbing Boston Center
08:56PM 42.6453 -74.5628 254° West 265 305 11,700 780 Climbing Boston Center
08:57PM 42.6183 -74.6633 250° West 265 305 12,500 840 Climbing Boston Center
08:58PM 42.5958 -74.7500 251° West 265 305 13,400 900 Climbing Boston Center
08:59PM 42.5706 -74.8533 252° West 270 311 14,400 840 Climbing Boston Center
09:00PM 42.5478 -74.9428 251° West 263 303 15,100 780 Climbing Boston Center
09:01PM 42.5250 -75.0292 250° West 257 296 16,000 420 Climbing Boston Center
09:02PM 42.5000 -75.1183 249° West 257 296 16,000  Level Boston Center
09:03PM 42.4728 -75.2156 249° West 257 296 16,000  Level Boston Center
09:05PM 42.4050 -75.4153 245° Southwest 276 318 16,100  Climbing New York Center
09:06PM 42.3742 -75.5114 247° West 276 318 16,100  Level New York Center
09:07PM 42.3433 -75.6044 246° West 281 323 16,100  Level New York Center
09:08PM 42.3144 -75.6978 247° West 281 323 16,100  Level New York Center
09:09PM 42.2836 -75.7878 245° Southwest 275 316 16,100  Level New York Center
09:10PM 42.2531 -75.8725 244° Southwest 270 311 16,100  Level New York Center
09:11PM 42.2219 -75.9622 245° Southwest 270 311 16,100  Level New York Center
09:12PM 42.1933 -76.0469 246° West 265 305 16,100  Level New York Center
09:13PM 42.1625 -76.1311 244° Southwest 265 305 16,100  Level New York Center
09:14PM 42.1317 -76.2181 244° Southwest 259 298 16,100  Level New York Center
09:15PM 42.0983 -76.3047 243° Southwest 259 298 16,100  Level New York Center
09:16PM 42.0694 -76.3889 245° Southwest 259 298 16,100 -60 Level New York Center
09:17PM 42.0383 -76.4756 244° Southwest 254 292 16,000 -60 Descending New York Center
09:18PM 42.0092 -76.5625 246° West 254 292 16,000  Level New York Center
09:19PM 41.9822 -76.6467 247° West 254 292 16,000  Level New York Center
09:21PM 41.9333 -76.8092 248° West 254 292 16,000  Level Cleveland Center
09:22PM 41.9050 -76.8944 246° West 254 292 16,000  Level Cleveland Center
09:23PM 41.8764 -76.9769 245° Southwest 254 292 16,000  Level Cleveland Center
09:24PM 41.8436 -77.0625 243° Southwest 254 292 16,000  Level Cleveland Center
09:25PM 41.8169 -77.1506 248° West 260 299 16,000  Level Cleveland Center
09:26PM 41.7861 -77.2356 244° Southwest 260 299 16,000  Level Cleveland Center
09:27PM 41.7553 -77.3181 243° Southwest 260 299 16,000  Level Cleveland Center
09:28PM 41.7222 -77.4031 243° Southwest 260 299 16,000  Level Cleveland Center
09:29PM 41.6931 -77.4853 245° Southwest 260 299 16,000  Level Cleveland Center
09:30PM 41.6561 -77.5814 243° Southwest 260 299 16,000  Level Cleveland Center
09:31PM 41.6247 -77.6636 243° Southwest 260 299 16,000  Level Cleveland Center
09:32PM 41.5933 -77.7456 243° Southwest 260 299 16,000  Level Cleveland Center
09:33PM 41.5644 -77.8328 246° West 260 299 16,000  Level Cleveland Center
09:34PM 41.5350 -77.9144 244° Southwest 260 299 16,000  Level Cleveland Center
09:35PM 41.5036 -78.0017 244° Southwest 260 299 16,000  Level Cleveland Center
09:36PM 41.4783 -78.0858 248° West 260 299 16,000  Level Cleveland Center
09:37PM 41.4511 -78.1728 247° West 260 299 16,000  Level Cleveland Center
09:38PM 41.4258 -78.2597 249° West 260 299 16,000  Level Cleveland Center
09:39PM 41.4003 -78.3436 248° West 255 293 16,000  Level Cleveland Center
09:40PM 41.3750 -78.4331 249° West 255 293 16,000  Level Cleveland Center
09:41PM 41.3472 -78.5197 247° West 255 293 16,000  Level Cleveland Center
09:42PM 41.3217 -78.6061 249° West 255 293 16,000  Level Cleveland Center
09:43PM 41.2961 -78.6928 249° West 255 293 16,000  Level Cleveland Center
09:44PM 41.2683 -78.7792 247° West 255 293 16,000  Level Cleveland Center
09:45PM 41.2467 -78.8653 252° West 255 293 16,000  Level Cleveland Center
09:46PM 41.2228 -78.9406 247° West 255 293 16,000  Level Cleveland Center
09:47PM 41.1969 -79.0294 249° West 255 293 16,000  Level Cleveland Center
09:48PM 41.1731 -79.1128 249° West 255 293 16,000  Level Cleveland Center
09:49PM 41.1469 -79.2017 249° West 255 293 16,000  Level Cleveland Center
09:50PM 41.1189 -79.2961 249° West 255 293 16,000  Level Cleveland Center
09:51PM 41.0928 -79.3792 247° West 255 293 16,000  Level Cleveland Center
09:52PM 41.0664 -79.4622 247° West 255 293 16,000  Level Cleveland Center
09:53PM 41.0381 -79.5453 246° West 255 293 16,000  Level Cleveland Center
09:54PM 41.0075 -79.6283 244° Southwest 255 293 16,000  Level Cleveland Center
09:55PM 40.9811 -79.7114 247° West 255 293 16,000  Level Cleveland Center
09:56PM 40.9525 -79.7942 245° Southwest 255 293 16,000  Level Cleveland Center
09:57PM 40.9258 -79.8769 247° West 255 293 16,000  Level Cleveland Center
09:58PM 40.8994 -79.9622 248° West 255 293 16,000  Level Cleveland Center
09:59PM 40.8747 -80.0450 248° West 255 293 16,000  Level Cleveland Center
10:00PM 40.8481 -80.1303 248° West 255 293 16,000  Level Cleveland Center
10:01PM 40.8233 -80.2128 248° West 255 293 16,000  Level Cleveland Center
10:02PM 40.7922 -80.2953 244° Southwest 255 293 16,000  Level Cleveland Center
10:03PM 40.7550 -80.3611 233° Southwest 255 293 16,000  Level Cleveland Center
10:04PM 40.7111 -80.4381 233° Southwest 255 293 16,000  Level Cleveland Center
10:05PM 40.6697 -80.5092 233° Southwest 250 288 16,000  Level Cleveland Center
10:06PM 40.6300 -80.5803 234° Southwest 250 288 16,000  Level Cleveland Center
10:07PM 40.5944 -80.6458 234° Southwest 243 280 16,000  Level Cleveland Center
10:08PM 40.5550 -80.7169 234° Southwest 237 273 16,000  Level Cleveland Center
10:09PM 40.5172 -80.7881 235° Southwest 242 278 16,000  Level Cleveland Center
10:10PM 40.4817 -80.8589 237° Southwest 242 278 16,000  Level Cleveland Center
10:11PM 40.4481 -80.9322 239° Southwest 242 278 16,000  Level Cleveland Center
10:12PM 40.4125 -81.0083 238° Southwest 242 278 16,000 -60 Level Cleveland Center
10:13PM 40.3786 -81.0819 239° Southwest 242 278 15,900 -60 Descending Cleveland Center
10:14PM 40.3431 -81.1550 237° Southwest 237 273 15,900  Level Cleveland Center
10:15PM 40.3050 -81.2283 236° Southwest 237 273 15,900  Level Cleveland Center
10:16PM 40.2672 -81.2986 235° Southwest 237 273 15,900  Level Cleveland Center
10:19PM 40.1844 -81.4692 238° Southwest 236 272 16,000  Climbing Indianapolis Center
10:20PM 40.1553 -81.5489 244° Southwest 239 275 16,000  Level Indianapolis Center
10:21PM 40.1286 -81.6314 247° West 243 280 16,000  Level Indianapolis Center
10:22PM 40.0975 -81.7250 247° West 240 276 16,000  Level Indianapolis Center
10:23PM 40.0731 -81.7997 247° West 242 278 16,000  Level Indianapolis Center
10:24PM 40.0456 -81.8814 246° West 243 280 16,000  Level Indianapolis Center
10:25PM 40.0175 -81.9631 246° West 244 281 16,000  Level Indianapolis Center
10:26PM 39.9914 -82.0461 248° West 245 282 16,000  Level Indianapolis Center
10:27PM 39.9636 -82.1275 246° West 245 282 16,000  Level Indianapolis Center
10:28PM 39.9361 -82.2086 246° West 244 281 16,000  Level Indianapolis Center
10:29PM 39.9075 -82.2900 245° Southwest 245 282 16,000  Level Indianapolis Center
10:30PM 39.8778 -82.3708 244° Southwest 245 282 16,000  Level Indianapolis Center
10:31PM 39.8456 -82.4661 246° West 246 283 16,000  Level Indianapolis Center
10:32PM 39.8175 -82.5458 245° Southwest 241 277 16,000  Level Indianapolis Center
10:33PM 39.7881 -82.6258 244° Southwest 242 278 16,000  Level Indianapolis Center
10:34PM 39.7586 -82.7044 244° Southwest 242 278 16,000  Level Indianapolis Center
10:35PM 39.7300 -82.7856 245° Southwest 244 281 16,000  Level Indianapolis Center
10:36PM 39.7011 -82.8647 245° Southwest 241 277 16,000  Level Indianapolis Center
10:37PM 39.6711 -82.9436 244° Southwest 241 277 16,000  Level Indianapolis Center
10:38PM 39.6411 -83.0231 244° Southwest 243 280 16,000 -60 Level Indianapolis Center
10:39PM 39.6108 -83.1017 243° Southwest 241 277 15,900 -300 Descending Indianapolis Center
10:40PM 39.5778 -83.1822 242° Southwest 247 284 15,400 -720 Descending Indianapolis Center
10:41PM 39.5456 -83.2697 244° Southwest 263 303 14,500 -840 Descending Indianapolis Center
10:42PM 39.5156 -83.3619 247° West 274 315 13,700 -840 Descending Indianapolis Center
10:43PM 39.4872 -83.4533 248° West 271 312 12,800 -1,020 Descending Indianapolis Center
10:44PM 39.4536 -83.5456 245° Southwest 277 319 11,700 -900 Descending Indianapolis Center
10:45PM 39.4231 -83.6358 246° West 273 314 11,000 -360 Descending Indianapolis Center
10:46PM 39.3917 -83.7167 243° Southwest 256 295 11,000  Level Indianapolis Center
10:47PM 39.3597 -83.7933 242° Southwest 243 280 11,000  Level Indianapolis Center
10:48PM 39.3275 -83.8722 242° Southwest 244 281 11,000  Level Indianapolis Center
10:49PM 39.2911 -83.9633 243° Southwest 242 278 11,000 -300 Level Indianapolis Center
10:50PM 39.2464 -84.0308 229° Southwest 245 282 10,500 -660 Descending Indianapolis Center
10:51PM 39.1969 -84.0994 227° Southwest 255 293 9,700 -900 Descending Indianapolis Center
10:52PM 39.1569 -84.1583 229° Southwest 221 254 8,700 -900 Descending Indianapolis Center
10:53PM 39.1222 -84.2161 232° Southwest 202 232 7,900 -900 Descending Indianapolis Center
10:54PM 39.0775 -84.2756 226° Southwest 220 253 6,900 -960 Descending Indianapolis Center
10:55PM 39.0300 -84.3383 226° Southwest 238 274 6,000 -780 Descending Indianapolis Center
10:56PM 38.9833 -84.4000 226° Southwest 243 280 5,500 -540 Descending Cincinnati TRACON
10:57PM 38.9500 -84.4500 229° Southwest 244 281 5,100 -300 Descending Cincinnati TRACON
10:58PM 38.9167 -84.5167 237° Southwest 199 229 5,000 -660 Descending Cincinnati TRACON
10:59PM 38.9167 -84.5833 270° West 192 221 3,900 -1,140 Descending Cincinnati TRACON
11:00PM 38.9333 -84.6500 288° West 195 224 2,800 -900 Descending Cincinnati TRACON
11:01PM 38.9667 -84.6667 339° North 176 203 2,100 -720 Descending Cincinnati TRACON
11:02PM 39.0167 -84.6667 360° North 131 151 1,400 -660 Descending Cincinnati TRACON